sensor_id;sensor_type;location;lat;lon;timestamp;temperature;humidity
22416;DHT22;12204;50.600;4.608;2022-10-16T00:02:46;23.00;81.60
22416;DHT22;12204;50.600;4.608;2022-10-16T00:07:51;23.00;81.60
22416;DHT22;12204;50.600;4.608;2022-10-16T00:12:54;23.00;81.80
22416;DHT22;12204;50.600;4.608;2022-10-16T00:17:58;23.00;82.00
22416;DHT22;12204;50.600;4.608;2022-10-16T00:23:04;23.00;82.00
22416;DHT22;12204;50.600;4.608;2022-10-16T00:28:07;23.00;82.20
22416;DHT22;12204;50.600;4.608;2022-10-16T00:33:11;23.00;81.80
22416;DHT22;12204;50.600;4.608;2022-10-16T00:38:16;23.00;82.10
22416;DHT22;12204;50.600;4.608;2022-10-16T00:43:39;23.00;82.20
22416;DHT22;12204;50.600;4.608;2022-10-16T00:48:48;23.00;82.20
22416;DHT22;12204;50.600;4.608;2022-10-16T00:53:57;23.00;82.10
22416;DHT22;12204;50.600;4.608;2022-10-16T00:59:03;23.00;82.20
22416;DHT22;12204;50.600;4.608;2022-10-16T01:04:13;23.00;82.20
22416;DHT22;12204;50.600;4.608;2022-10-16T01:09:22;22.90;82.20
22416;DHT22;12204;50.600;4.608;2022-10-16T01:14:37;22.90;82.30
22416;DHT22;12204;50.600;4.608;2022-10-16T01:20:00;22.90;81.90
22416;DHT22;12204;50.600;4.608;2022-10-16T01:25:19;22.90;81.90
22416;DHT22;12204;50.600;4.608;2022-10-16T01:30:32;22.90;81.70
22416;DHT22;12204;50.600;4.608;2022-10-16T01:35:40;22.80;81.60
22416;DHT22;12204;50.600;4.608;2022-10-16T01:40:51;22.80;82.00
22416;DHT22;12204;50.600;4.608;2022-10-16T01:46:00;22.90;82.10
22416;DHT22;12204;50.600;4.608;2022-10-16T01:51:08;22.90;82.00
22416;DHT22;12204;50.600;4.608;2022-10-16T01:56:15;22.90;82.00
22416;DHT22;12204;50.600;4.608;2022-10-16T02:01:24;22.90;81.90
22416;DHT22;12204;50.600;4.608;2022-10-16T02:06:29;22.90;82.00
22416;DHT22;12204;50.600;4.608;2022-10-16T02:11:33;22.90;81.90
22416;DHT22;12204;50.600;4.608;2022-10-16T02:16:40;22.90;81.70
22416;DHT22;12204;50.600;4.608;2022-10-16T02:21:49;22.90;81.50
22416;DHT22;12204;50.600;4.608;2022-10-16T02:27:03;22.90;81.40
22416;DHT22;12204;50.600;4.608;2022-10-16T02:32:14;22.90;82.10
22416;DHT22;12204;50.600;4.608;2022-10-16T02:37:20;22.90;82.20
22416;DHT22;12204;50.600;4.608;2022-10-16T02:42:28;22.80;82.20
22416;DHT22;12204;50.600;4.608;2022-10-16T02:47:36;22.90;82.20
22416;DHT22;12204;50.600;4.608;2022-10-16T02:52:40;22.90;82.10
22416;DHT22;12204;50.600;4.608;2022-10-16T02:57:44;22.90;81.90
22416;DHT22;12204;50.600;4.608;2022-10-16T03:02:49;22.90;81.80
22416;DHT22;12204;50.600;4.608;2022-10-16T03:07:52;22.90;81.90
22416;DHT22;12204;50.600;4.608;2022-10-16T03:12:56;22.80;82.00
22416;DHT22;12204;50.600;4.608;2022-10-16T03:18:01;22.80;82.00
22416;DHT22;12204;50.600;4.608;2022-10-16T03:23:05;22.80;82.00
22416;DHT22;12204;50.600;4.608;2022-10-16T03:28:10;22.80;82.40
22416;DHT22;12204;50.600;4.608;2022-10-16T03:33:15;22.80;82.50
22416;DHT22;12204;50.600;4.608;2022-10-16T03:38:18;22.80;82.10
22416;DHT22;12204;50.600;4.608;2022-10-16T03:43:22;22.80;82.20
22416;DHT22;12204;50.600;4.608;2022-10-16T03:48:27;22.80;82.80
22416;DHT22;12204;50.600;4.608;2022-10-16T03:53:31;22.70;82.80
22416;DHT22;12204;50.600;4.608;2022-10-16T03:58:35;22.80;82.80
22416;DHT22;12204;50.600;4.608;2022-10-16T04:03:40;22.70;82.60
22416;DHT22;12204;50.600;4.608;2022-10-16T04:08:43;22.70;82.60
22416;DHT22;12204;50.600;4.608;2022-10-16T04:13:47;22.70;82.80
22416;DHT22;12204;50.600;4.608;2022-10-16T04:18:52;22.70;82.90
22416;DHT22;12204;50.600;4.608;2022-10-16T04:23:56;22.80;82.90
22416;DHT22;12204;50.600;4.608;2022-10-16T04:29:00;22.80;82.80
22416;DHT22;12204;50.600;4.608;2022-10-16T04:34:05;22.80;82.70
22416;DHT22;12204;50.600;4.608;2022-10-16T04:39:08;22.80;82.60
22416;DHT22;12204;50.600;4.608;2022-10-16T04:44:12;22.70;82.50
22416;DHT22;12204;50.600;4.608;2022-10-16T04:49:17;22.70;82.30
22416;DHT22;12204;50.600;4.608;2022-10-16T04:54:21;22.70;82.60
22416;DHT22;12204;50.600;4.608;2022-10-16T04:59:24;22.70;82.50
22416;DHT22;12204;50.600;4.608;2022-10-16T05:04:29;22.70;82.20
22416;DHT22;12204;50.600;4.608;2022-10-16T05:09:33;22.70;82.30
22416;DHT22;12204;50.600;4.608;2022-10-16T05:14:36;22.70;82.30
22416;DHT22;12204;50.600;4.608;2022-10-16T05:19:41;22.70;82.40
22416;DHT22;12204;50.600;4.608;2022-10-16T05:24:46;22.70;82.30
22416;DHT22;12204;50.600;4.608;2022-10-16T05:29:49;22.70;82.40
22416;DHT22;12204;50.600;4.608;2022-10-16T05:34:54;22.70;81.90
22416;DHT22;12204;50.600;4.608;2022-10-16T05:39:58;22.70;81.40
22416;DHT22;12204;50.600;4.608;2022-10-16T05:45:02;22.70;81.10
22416;DHT22;12204;50.600;4.608;2022-10-16T05:50:08;22.70;80.70
22416;DHT22;12204;50.600;4.608;2022-10-16T05:55:12;22.80;80.50
22416;DHT22;12204;50.600;4.608;2022-10-16T06:00:16;22.80;80.30
22416;DHT22;12204;50.600;4.608;2022-10-16T06:05:21;22.80;80.30
22416;DHT22;12204;50.600;4.608;2022-10-16T06:10:25;22.80;80.10
22416;DHT22;12204;50.600;4.608;2022-10-16T06:15:28;22.80;80.20
22416;DHT22;12204;50.600;4.608;2022-10-16T06:20:33;22.80;80.00
22416;DHT22;12204;50.600;4.608;2022-10-16T06:25:37;22.80;80.20
22416;DHT22;12204;50.600;4.608;2022-10-16T06:30:41;22.80;80.20
22416;DHT22;12204;50.600;4.608;2022-10-16T06:35:47;22.80;80.20
22416;DHT22;12204;50.600;4.608;2022-10-16T06:40:50;22.80;80.20
22416;DHT22;12204;50.600;4.608;2022-10-16T06:45:54;22.80;80.20
22416;DHT22;12204;50.600;4.608;2022-10-16T06:51:02;22.80;80.30
22416;DHT22;12204;50.600;4.608;2022-10-16T06:56:08;22.80;80.40
22416;DHT22;12204;50.600;4.608;2022-10-16T07:01:13;22.80;80.40
22416;DHT22;12204;50.600;4.608;2022-10-16T07:06:22;22.80;80.40
22416;DHT22;12204;50.600;4.608;2022-10-16T07:11:27;22.80;80.30
22416;DHT22;12204;50.600;4.608;2022-10-16T07:16:31;22.80;80.10
22416;DHT22;12204;50.600;4.608;2022-10-16T07:21:37;22.80;80.10
22416;DHT22;12204;50.600;4.608;2022-10-16T07:26:42;22.80;80.00
22416;DHT22;12204;50.600;4.608;2022-10-16T07:31:48;22.80;80.80
22416;DHT22;12204;50.600;4.608;2022-10-16T07:36:55;22.90;80.80
22416;DHT22;12204;50.600;4.608;2022-10-16T07:41:58;22.80;80.00
22416;DHT22;12204;50.600;4.608;2022-10-16T07:47:02;22.70;79.40
22416;DHT22;12204;50.600;4.608;2022-10-16T07:52:07;22.60;78.60
22416;DHT22;12204;50.600;4.608;2022-10-16T07:57:11;22.50;78.40
22416;DHT22;12204;50.600;4.608;2022-10-16T08:02:20;22.50;77.90
22416;DHT22;12204;50.600;4.608;2022-10-16T08:07:25;22.40;77.60
22416;DHT22;12204;50.600;4.608;2022-10-16T08:12:29;22.40;77.30
22416;DHT22;12204;50.600;4.608;2022-10-16T08:17:33;22.40;77.00
22416;DHT22;12204;50.600;4.608;2022-10-16T08:22:38;22.40;76.60
22416;DHT22;12204;50.600;4.608;2022-10-16T08:27:41;22.40;76.70
22416;DHT22;12204;50.600;4.608;2022-10-16T08:32:46;22.40;76.60
22416;DHT22;12204;50.600;4.608;2022-10-16T08:37:52;22.40;76.50
22416;DHT22;12204;50.600;4.608;2022-10-16T08:43:09;22.30;76.10
22416;DHT22;12204;50.600;4.608;2022-10-16T08:48:29;22.20;75.80
22416;DHT22;12204;50.600;4.608;2022-10-16T08:53:41;22.20;75.40
22416;DHT22;12204;50.600;4.608;2022-10-16T08:58:48;22.20;75.20
22416;DHT22;12204;50.600;4.608;2022-10-16T09:04:15;22.20;74.90
22416;DHT22;12204;50.600;4.608;2022-10-16T09:09:58;22.10;74.50
22416;DHT22;12204;50.600;4.608;2022-10-16T09:15:20;22.10;74.90
22416;DHT22;12204;50.600;4.608;2022-10-16T09:20:38;22.20;74.90
22416;DHT22;12204;50.600;4.608;2022-10-16T09:25:51;22.20;75.70
22416;DHT22;12204;50.600;4.608;2022-10-16T09:30:57;22.20;75.70
22416;DHT22;12204;50.600;4.608;2022-10-16T09:36:03;22.20;75.90
22416;DHT22;12204;50.600;4.608;2022-10-16T09:41:17;22.20;76.20
22416;DHT22;12204;50.600;4.608;2022-10-16T09:46:26;22.20;76.30
22416;DHT22;12204;50.600;4.608;2022-10-16T09:51:33;22.20;76.40
22416;DHT22;12204;50.600;4.608;2022-10-16T09:56:40;22.20;76.60
22416;DHT22;12204;50.600;4.608;2022-10-16T10:01:49;22.20;76.70
22416;DHT22;12204;50.600;4.608;2022-10-16T10:06:56;22.20;76.80
22416;DHT22;12204;50.600;4.608;2022-10-16T10:12:02;22.20;76.90
22416;DHT22;12204;50.600;4.608;2022-10-16T10:17:15;22.20;77.00
22416;DHT22;12204;50.600;4.608;2022-10-16T10:22:30;22.20;77.10
22416;DHT22;12204;50.600;4.608;2022-10-16T10:27:42;22.20;77.20
22416;DHT22;12204;50.600;4.608;2022-10-16T10:33:09;22.20;77.30
22416;DHT22;12204;50.600;4.608;2022-10-16T10:38:30;22.20;77.30
22416;DHT22;12204;50.600;4.608;2022-10-16T10:43:52;22.20;77.40
22416;DHT22;12204;50.600;4.608;2022-10-16T10:49:27;22.20;77.40
22416;DHT22;12204;50.600;4.608;2022-10-16T10:54:50;22.20;77.50
22416;DHT22;12204;50.600;4.608;2022-10-16T11:00:10;22.20;77.70
22416;DHT22;12204;50.600;4.608;2022-10-16T11:05:36;22.20;77.60
22416;DHT22;12204;50.600;4.608;2022-10-16T11:10:50;22.20;77.70
22416;DHT22;12204;50.600;4.608;2022-10-16T11:16:01;22.20;77.80
22416;DHT22;12204;50.600;4.608;2022-10-16T11:21:12;22.20;77.60
22416;DHT22;12204;50.600;4.608;2022-10-16T11:26:20;22.20;78.30
22416;DHT22;12204;50.600;4.608;2022-10-16T11:31:36;22.20;77.60
22416;DHT22;12204;50.600;4.608;2022-10-16T11:36:47;22.20;77.60
22416;DHT22;12204;50.600;4.608;2022-10-16T11:41:56;22.20;77.70
22416;DHT22;12204;50.600;4.608;2022-10-16T11:47:15;22.20;77.70
22416;DHT22;12204;50.600;4.608;2022-10-16T11:52:52;22.20;77.70
22416;DHT22;12204;50.600;4.608;2022-10-16T11:58:02;22.20;77.80
22416;DHT22;12204;50.600;4.608;2022-10-16T12:03:18;22.20;77.80
22416;DHT22;12204;50.600;4.608;2022-10-16T12:08:26;22.20;77.70
22416;DHT22;12204;50.600;4.608;2022-10-16T12:13:33;22.20;77.70
22416;DHT22;12204;50.600;4.608;2022-10-16T12:18:43;22.20;77.70
22416;DHT22;12204;50.600;4.608;2022-10-16T12:23:49;22.30;77.70
22416;DHT22;12204;50.600;4.608;2022-10-16T12:28:55;22.30;77.50
22416;DHT22;12204;50.600;4.608;2022-10-16T12:34:22;22.30;77.60
22416;DHT22;12204;50.600;4.608;2022-10-16T12:39:30;22.30;77.60
22416;DHT22;12204;50.600;4.608;2022-10-16T12:44:34;22.20;77.50
22416;DHT22;12204;50.600;4.608;2022-10-16T12:49:48;22.30;77.70
22416;DHT22;12204;50.600;4.608;2022-10-16T12:54:56;22.20;77.50
22416;DHT22;12204;50.600;4.608;2022-10-16T13:00:10;22.20;77.60
22416;DHT22;12204;50.600;4.608;2022-10-16T13:05:32;22.20;77.50
22416;DHT22;12204;50.600;4.608;2022-10-16T13:10:54;22.20;77.50
22416;DHT22;12204;50.600;4.608;2022-10-16T13:16:17;22.20;77.50
22416;DHT22;12204;50.600;4.608;2022-10-16T13:21:35;22.20;77.60
22416;DHT22;12204;50.600;4.608;2022-10-16T13:26:52;22.20;77.60
22416;DHT22;12204;50.600;4.608;2022-10-16T13:32:01;22.20;77.50
22416;DHT22;12204;50.600;4.608;2022-10-16T13:37:19;22.20;77.50
22416;DHT22;12204;50.600;4.608;2022-10-16T13:42:26;22.20;77.40
22416;DHT22;12204;50.600;4.608;2022-10-16T13:47:31;22.20;77.50
22416;DHT22;12204;50.600;4.608;2022-10-16T13:52:37;22.20;77.50
22416;DHT22;12204;50.600;4.608;2022-10-16T13:57:41;22.20;77.50
22416;DHT22;12204;50.600;4.608;2022-10-16T14:02:45;22.20;77.50
22416;DHT22;12204;50.600;4.608;2022-10-16T14:07:56;22.20;77.50
22416;DHT22;12204;50.600;4.608;2022-10-16T14:13:02;22.20;77.50
22416;DHT22;12204;50.600;4.608;2022-10-16T14:18:13;22.20;77.50
22416;DHT22;12204;50.600;4.608;2022-10-16T14:23:29;22.20;77.50
22416;DHT22;12204;50.600;4.608;2022-10-16T14:28:46;22.20;77.50
22416;DHT22;12204;50.600;4.608;2022-10-16T14:33:51;22.20;77.50
22416;DHT22;12204;50.600;4.608;2022-10-16T14:39:02;22.20;77.50
22416;DHT22;12204;50.600;4.608;2022-10-16T14:44:10;22.20;77.40
22416;DHT22;12204;50.600;4.608;2022-10-16T14:49:18;22.20;77.40
22416;DHT22;12204;50.600;4.608;2022-10-16T14:54:25;22.20;77.50
22416;DHT22;12204;50.600;4.608;2022-10-16T14:59:32;22.20;77.50
22416;DHT22;12204;50.600;4.608;2022-10-16T15:04:38;22.20;77.50
22416;DHT22;12204;50.600;4.608;2022-10-16T15:09:43;22.20;77.50
22416;DHT22;12204;50.600;4.608;2022-10-16T15:14:50;22.20;77.50
22416;DHT22;12204;50.600;4.608;2022-10-16T15:19:54;22.10;77.40
22416;DHT22;12204;50.600;4.608;2022-10-16T15:24:59;22.20;77.50
22416;DHT22;12204;50.600;4.608;2022-10-16T15:30:02;22.10;77.50
22416;DHT22;12204;50.600;4.608;2022-10-16T15:35:08;22.10;77.50
22416;DHT22;12204;50.600;4.608;2022-10-16T15:40:15;22.10;77.40
22416;DHT22;12204;50.600;4.608;2022-10-16T15:45:19;22.10;77.50
22416;DHT22;12204;50.600;4.608;2022-10-16T15:50:24;22.10;77.50
22416;DHT22;12204;50.600;4.608;2022-10-16T15:55:29;22.10;77.50
22416;DHT22;12204;50.600;4.608;2022-10-16T16:00:32;22.10;77.50
22416;DHT22;12204;50.600;4.608;2022-10-16T16:05:38;22.10;77.50
22416;DHT22;12204;50.600;4.608;2022-10-16T16:10:58;22.10;77.60
22416;DHT22;12204;50.600;4.608;2022-10-16T16:16:05;22.10;77.60
22416;DHT22;12204;50.600;4.608;2022-10-16T16:21:13;22.10;77.60
22416;DHT22;12204;50.600;4.608;2022-10-16T16:26:24;22.10;77.60
22416;DHT22;12204;50.600;4.608;2022-10-16T16:31:34;22.10;77.60
22416;DHT22;12204;50.600;4.608;2022-10-16T16:36:37;22.10;77.60
22416;DHT22;12204;50.600;4.608;2022-10-16T16:41:43;22.10;77.60
22416;DHT22;12204;50.600;4.608;2022-10-16T16:46:47;22.00;77.50
22416;DHT22;12204;50.600;4.608;2022-10-16T16:51:52;22.10;77.90
22416;DHT22;12204;50.600;4.608;2022-10-16T16:56:58;22.10;78.10
22416;DHT22;12204;50.600;4.608;2022-10-16T17:02:02;22.20;78.30
22416;DHT22;12204;50.600;4.608;2022-10-16T17:07:06;22.30;78.80
22416;DHT22;12204;50.600;4.608;2022-10-16T17:12:11;22.30;79.00
22416;DHT22;12204;50.600;4.608;2022-10-16T17:17:15;22.30;79.40
22416;DHT22;12204;50.600;4.608;2022-10-16T17:22:19;22.20;79.70
22416;DHT22;12204;50.600;4.608;2022-10-16T17:27:24;22.20;80.10
22416;DHT22;12204;50.600;4.608;2022-10-16T17:32:28;22.20;80.60
22416;DHT22;12204;50.600;4.608;2022-10-16T17:37:31;22.20;80.50
22416;DHT22;12204;50.600;4.608;2022-10-16T17:42:36;22.20;80.20
22416;DHT22;12204;50.600;4.608;2022-10-16T17:47:40;22.20;80.50
22416;DHT22;12204;50.600;4.608;2022-10-16T17:52:44;22.20;80.40
22416;DHT22;12204;50.600;4.608;2022-10-16T17:57:49;22.20;80.80
22416;DHT22;12204;50.600;4.608;2022-10-16T18:02:54;22.20;81.10
22416;DHT22;12204;50.600;4.608;2022-10-16T18:07:57;22.20;80.90
22416;DHT22;12204;50.600;4.608;2022-10-16T18:13:02;22.20;80.50
22416;DHT22;12204;50.600;4.608;2022-10-16T18:18:06;22.50;80.60
22416;DHT22;12204;50.600;4.608;2022-10-16T18:23:10;23.00;78.30
22416;DHT22;12204;50.600;4.608;2022-10-16T18:28:15;23.50;76.40
22416;DHT22;12204;50.600;4.608;2022-10-16T18:33:19;23.70;75.30
22416;DHT22;12204;50.600;4.608;2022-10-16T18:38:22;23.90;74.80
22416;DHT22;12204;50.600;4.608;2022-10-16T18:43:28;23.90;74.60
22416;DHT22;12204;50.600;4.608;2022-10-16T18:48:32;23.90;74.40
22416;DHT22;12204;50.600;4.608;2022-10-16T18:53:37;23.90;74.50
22416;DHT22;12204;50.600;4.608;2022-10-16T18:58:44;23.90;74.50
22416;DHT22;12204;50.600;4.608;2022-10-16T19:03:53;23.90;74.50
22416;DHT22;12204;50.600;4.608;2022-10-16T19:08:59;23.80;74.60
22416;DHT22;12204;50.600;4.608;2022-10-16T19:14:04;23.80;74.70
22416;DHT22;12204;50.600;4.608;2022-10-16T19:19:12;23.70;74.80
22416;DHT22;12204;50.600;4.608;2022-10-16T19:24:19;23.70;75.00
22416;DHT22;12204;50.600;4.608;2022-10-16T19:29:24;23.70;75.10
22416;DHT22;12204;50.600;4.608;2022-10-16T19:34:28;23.60;75.30
22416;DHT22;12204;50.600;4.608;2022-10-16T19:39:32;23.60;75.40
22416;DHT22;12204;50.600;4.608;2022-10-16T19:44:37;23.50;75.60
22416;DHT22;12204;50.600;4.608;2022-10-16T19:49:41;23.50;75.80
22416;DHT22;12204;50.600;4.608;2022-10-16T19:54:44;23.50;76.00
22416;DHT22;12204;50.600;4.608;2022-10-16T19:59:52;23.40;76.10
22416;DHT22;12204;50.600;4.608;2022-10-16T20:04:56;23.40;76.20
22416;DHT22;12204;50.600;4.608;2022-10-16T20:10:00;23.30;76.20
22416;DHT22;12204;50.600;4.608;2022-10-16T20:15:06;23.30;76.40
22416;DHT22;12204;50.600;4.608;2022-10-16T20:20:11;23.30;76.50
22416;DHT22;12204;50.600;4.608;2022-10-16T20:25:15;23.20;76.50
22416;DHT22;12204;50.600;4.608;2022-10-16T20:30:21;23.20;76.50
22416;DHT22;12204;50.600;4.608;2022-10-16T20:35:25;23.20;76.60
22416;DHT22;12204;50.600;4.608;2022-10-16T20:40:29;23.20;76.70
22416;DHT22;12204;50.600;4.608;2022-10-16T20:45:35;23.10;76.80
22416;DHT22;12204;50.600;4.608;2022-10-16T20:50:40;23.10;76.80
22416;DHT22;12204;50.600;4.608;2022-10-16T20:55:44;23.10;76.90
22416;DHT22;12204;50.600;4.608;2022-10-16T21:00:49;23.00;76.90
22416;DHT22;12204;50.600;4.608;2022-10-16T21:05:53;23.00;77.00
22416;DHT22;12204;50.600;4.608;2022-10-16T21:11:07;23.00;79.10
22416;DHT22;12204;50.600;4.608;2022-10-16T21:16:14;23.20;79.80
22416;DHT22;12204;50.600;4.608;2022-10-16T21:21:20;23.20;80.20
22416;DHT22;12204;50.600;4.608;2022-10-16T21:26:27;23.20;80.50
22416;DHT22;12204;50.600;4.608;2022-10-16T21:31:33;23.20;80.60
22416;DHT22;12204;50.600;4.608;2022-10-16T21:36:39;23.20;80.60
22416;DHT22;12204;50.600;4.608;2022-10-16T21:41:46;23.20;80.60
22416;DHT22;12204;50.600;4.608;2022-10-16T21:46:52;23.20;80.50
22416;DHT22;12204;50.600;4.608;2022-10-16T21:51:56;23.20;80.40
22416;DHT22;12204;50.600;4.608;2022-10-16T21:56:59;23.20;80.50
22416;DHT22;12204;50.600;4.608;2022-10-16T22:02:09;23.20;80.50
22416;DHT22;12204;50.600;4.608;2022-10-16T22:07:13;23.20;80.60
22416;DHT22;12204;50.600;4.608;2022-10-16T22:12:16;23.20;80.30
22416;DHT22;12204;50.600;4.608;2022-10-16T22:17:21;23.20;80.20
22416;DHT22;12204;50.600;4.608;2022-10-16T22:22:25;23.20;80.50
22416;DHT22;12204;50.600;4.608;2022-10-16T22:27:29;23.20;80.40
22416;DHT22;12204;50.600;4.608;2022-10-16T22:32:34;23.10;80.20
22416;DHT22;12204;50.600;4.608;2022-10-16T22:37:37;23.10;80.20
22416;DHT22;12204;50.600;4.608;2022-10-16T22:42:41;23.10;80.30
22416;DHT22;12204;50.600;4.608;2022-10-16T22:47:46;23.10;80.30
22416;DHT22;12204;50.600;4.608;2022-10-16T22:52:49;23.10;80.50
22416;DHT22;12204;50.600;4.608;2022-10-16T22:57:54;23.10;80.60
22416;DHT22;12204;50.600;4.608;2022-10-16T23:03:00;23.10;80.70
22416;DHT22;12204;50.600;4.608;2022-10-16T23:08:03;23.10;80.80
22416;DHT22;12204;50.600;4.608;2022-10-16T23:13:08;23.10;80.90
22416;DHT22;12204;50.600;4.608;2022-10-16T23:18:13;23.10;81.00
22416;DHT22;12204;50.600;4.608;2022-10-16T23:23:17;23.10;81.00
22416;DHT22;12204;50.600;4.608;2022-10-16T23:28:20;23.10;81.20
22416;DHT22;12204;50.600;4.608;2022-10-16T23:33:25;23.10;81.30
22416;DHT22;12204;50.600;4.608;2022-10-16T23:38:29;23.10;81.70
22416;DHT22;12204;50.600;4.608;2022-10-16T23:43:33;23.10;81.70
22416;DHT22;12204;50.600;4.608;2022-10-16T23:48:38;23.10;81.40
22416;DHT22;12204;50.600;4.608;2022-10-16T23:53:41;23.10;81.30
22416;DHT22;12204;50.600;4.608;2022-10-16T23:58:45;23.10;82.40
